Time;durP1;ratioP1;P1;durP2;ratioP2;P2;SDS_P1;SDS_P2;PMS_P1;PMS_P2;Temp;Humidity;BMP_temperature;BMP_pressure;BME280_temperature;BME280_humidity;BME280_pressure;Samples;Min_cycle;Max_cycle;Signal;HPM_P1;HPM_P2
2023/07/07 00:01:52;;;;;;;0.28;0.28;;;;;;;17.12;58.12;101992.16;5090731;28;20021;-79
2023/07/07 00:04:20;;;;;;;0.20;0.20;;;;;;;17.11;57.55;101990.38;5096053;28;20043;-78
2023/07/07 00:06:47;;;;;;;0.28;0.28;;;;;;;17.10;57.51;101985.94;5092068;28;20020;-79
2023/07/07 00:09:13;;;;;;;0.00;0.00;;;;;;;17.09;57.93;101986.00;5100640;28;20024;-79
2023/07/07 00:11:40;;;;;;;0.00;0.00;;;;;;;17.07;56.89;101985.16;5092309;28;20378;-79
2023/07/07 00:14:06;;;;;;;0.08;0.08;;;;;;;17.06;56.95;101991.44;5105320;28;20039;-78
2023/07/07 00:16:32;;;;;;;0.03;0.03;;;;;;;17.05;57.26;101995.91;5093598;28;20492;-78
2023/07/07 00:19:00;;;;;;;0.10;0.10;;;;;;;17.06;57.01;101991.44;5087219;28;20055;-79
2023/07/07 00:21:26;;;;;;;0.10;0.10;;;;;;;17.05;57.25;101989.69;5089572;28;20090;-79
2023/07/07 00:23:55;;;;;;;0.05;0.05;;;;;;;17.05;57.60;101992.38;5092199;28;20039;-78
2023/07/07 00:26:23;;;;;;;0.00;0.00;;;;;;;17.03;57.98;101989.72;5093525;28;20414;-78
2023/07/07 00:28:50;;;;;;;0.10;0.10;;;;;;;17.02;57.42;101990.63;5092131;28;20028;-78
2023/07/07 00:31:20;;;;;;;0.10;0.10;;;;;;;17.00;57.99;101987.16;5105993;28;20095;-79
2023/07/07 00:33:46;;;;;;;0.10;0.10;;;;;;;16.96;58.19;101980.13;5088832;28;20027;-78
2023/07/07 00:36:13;;;;;;;0.10;0.10;;;;;;;16.92;57.96;101990.06;5086511;28;20091;-80
2023/07/07 00:38:39;;;;;;;0.10;0.10;;;;;;;16.90;58.26;101980.28;5087436;28;20023;-76
2023/07/07 00:41:07;;;;;;;0.10;0.10;;;;;;;16.86;58.71;101990.19;5085753;28;20033;-78
2023/07/07 00:43:35;;;;;;;0.10;0.10;;;;;;;16.85;58.36;101987.53;5090043;28;20044;-80
2023/07/07 00:46:01;;;;;;;0.00;0.00;;;;;;;16.81;58.68;101982.28;5088571;28;20029;-79
2023/07/07 00:48:37;;;;;;;0.00;0.00;;;;;;;16.80;58.79;101980.50;5088468;28;20024;-80
2023/07/07 00:51:12;;;;;;;0.10;0.10;;;;;;;16.77;58.40;101974.38;5084302;28;20035;-80
2023/07/07 00:53:42;;;;;;;0.10;0.10;;;;;;;16.72;58.84;101979.84;5087438;28;20043;-79
2023/07/07 00:56:16;;;;;;;0.10;0.10;;;;;;;16.70;58.52;101976.34;5086401;28;20028;-79
2023/07/07 00:58:43;;;;;;;0.10;0.10;;;;;;;16.64;59.15;101968.50;5086174;28;20039;-80
2023/07/07 01:01:14;;;;;;;0.10;0.10;;;;;;;16.61;59.14;101979.25;5086122;28;20033;-79
2023/07/07 01:03:44;;;;;;;0.10;0.10;;;;;;;16.56;59.71;101979.41;5092436;28;20035;-79
2023/07/07 01:06:14;;;;;;;0.10;0.10;;;;;;;16.53;58.95;101981.28;5087070;28;20040;-79
2023/07/07 01:08:42;;;;;;;1.42;1.33;;;;;;;16.49;58.74;101978.69;5089355;28;20031;-79
2023/07/07 01:11:09;;;;;;;0.03;0.03;;;;;;;16.54;59.30;101977.69;5087881;28;20044;-79
2023/07/07 01:13:36;;;;;;;0.10;0.10;;;;;;;16.57;58.23;101974.91;5087129;28;20032;-80
2023/07/07 01:16:13;;;;;;;0.00;0.00;;;;;;;16.59;58.80;101970.41;5088247;28;20024;-80
2023/07/07 01:18:52;;;;;;;0.10;0.10;;;;;;;16.58;58.69;101979.34;5086595;28;20540;-81
2023/07/07 01:21:41;;;;;;;0.10;0.10;;;;;;;16.55;58.65;101979.44;5090149;28;20031;-80
2023/07/07 01:24:38;;;;;;;0.10;0.10;;;;;;;16.57;59.32;101977.59;5090832;28;20047;-79
2023/07/07 01:30:32;;;;;;;0.00;0.00;;;;;;;16.40;58.96;101976.25;5125115;27;1186408;-78
2023/07/07 01:33:03;;;;;;;0.10;0.10;;;;;;;16.29;59.89;101970.31;5133690;27;20064;-79
2023/07/07 01:35:29;;;;;;;0.00;0.00;;;;;;;16.27;60.17;101967.66;5148701;27;20033;-79
2023/07/07 01:37:58;;;;;;;0.10;0.10;;;;;;;16.27;59.81;101969.47;5138648;27;20019;-78
2023/07/07 01:40:50;;;;;;;0.10;0.10;;;;;;;16.27;60.30;101970.31;5131595;27;20548;-78
2023/07/07 01:43:27;;;;;;;0.03;0.03;;;;;;;16.29;59.63;101973.00;5135757;27;20039;-79
2023/07/07 01:46:08;;;;;;;0.00;0.00;;;;;;;16.29;60.25;101970.31;5145255;27;20297;-78
2023/07/07 01:48:46;;;;;;;0.00;0.00;;;;;;;16.27;60.43;101966.78;5144553;27;20051;-78
2023/07/07 01:51:15;;;;;;;0.10;0.10;;;;;;;16.24;60.25;101965.06;5131189;27;20035;-78
2023/07/07 01:53:43;;;;;;;0.10;0.10;;;;;;;16.25;60.79;101968.63;5136768;27;20030;-78
2023/07/07 01:56:12;;;;;;;0.00;0.00;;;;;;;16.22;60.64;101964.22;5140554;27;20073;-78
2023/07/07 01:58:42;;;;;;;0.10;0.10;;;;;;;16.21;61.21;101972.28;5137258;27;20027;-78
2023/07/07 02:01:08;;;;;;;0.10;0.10;;;;;;;16.18;61.47;101966.09;5139565;27;20085;-79
2023/07/07 02:03:34;;;;;;;0.10;0.10;;;;;;;16.18;61.34;101970.59;5143494;27;20039;-79
2023/07/07 02:06:00;;;;;;;0.00;0.00;;;;;;;16.17;61.16;101969.72;5156201;27;20046;-78
2023/07/07 02:08:27;;;;;;;0.00;0.00;;;;;;;16.22;61.31;101968.72;5151245;27;20032;-77
2023/07/07 02:10:53;;;;;;;0.10;0.10;;;;;;;16.24;60.82;101965.06;5138530;27;20050;-79
2023/07/07 02:13:19;;;;;;;0.63;0.63;;;;;;;16.24;61.00;101970.44;5129742;28;20099;-80
2023/07/07 02:15:45;;;;;;;0.08;0.08;;;;;;;16.18;61.39;101965.22;5148650;27;20441;-79
2023/07/07 02:18:11;;;;;;;0.00;0.00;;;;;;;16.15;61.39;101966.19;5145349;27;20024;-79
2023/07/07 02:20:37;;;;;;;0.10;0.10;;;;;;;16.13;61.47;101962.66;5144533;27;20032;-79
2023/07/07 02:23:03;;;;;;;0.08;0.08;;;;;;;16.13;61.41;101956.47;5147856;27;20083;-79
2023/07/07 02:25:29;;;;;;;0.10;0.10;;;;;;;16.12;61.85;101960.91;5141968;27;20053;-80
2023/07/07 02:27:55;;;;;;;0.10;0.10;;;;;;;16.17;61.26;101961.69;5131975;27;20031;-79
2023/07/07 02:30:22;;;;;;;0.10;0.10;;;;;;;16.12;62.21;101960.91;5156556;27;20031;-80
2023/07/07 02:32:48;;;;;;;0.80;0.80;;;;;;;16.13;62.08;101960.00;5135935;27;20019;-81
2023/07/07 02:35:14;;;;;;;0.10;0.10;;;;;;;16.13;61.75;101957.31;5133719;27;20019;-80
2023/07/07 02:37:40;;;;;;;0.00;0.00;;;;;;;16.13;61.75;101956.47;5140551;27;20030;-80
2023/07/07 02:40:08;;;;;;;0.03;0.03;;;;;;;16.13;61.75;101962.66;5115996;28;20069;-79
2023/07/07 02:42:34;;;;;;;0.10;0.10;;;;;;;16.12;62.49;101955.56;5121896;28;20032;-80
2023/07/07 02:45:01;;;;;;;0.10;0.10;;;;;;;16.11;62.34;101959.19;5119380;28;20043;-79
2023/07/07 02:47:29;;;;;;;0.10;0.10;;;;;;;16.13;62.01;101965.34;5122633;28;20060;-80
2023/07/07 02:49:55;;;;;;;0.10;0.10;;;;;;;16.13;61.97;101973.38;5129819;27;20030;-81
2023/07/07 02:52:21;;;;;;;0.00;0.00;;;;;;;16.14;62.11;101968.91;5130534;27;20517;-78
2023/07/07 02:54:47;;;;;;;0.65;0.65;;;;;;;16.13;62.10;101975.16;5117037;28;20024;-79
2023/07/07 02:57:13;;;;;;;0.10;0.10;;;;;;;16.12;62.23;101971.59;5121992;28;20054;-78
2023/07/07 02:59:39;;;;;;;0.10;0.10;;;;;;;16.11;61.96;101980.56;5134095;27;20080;-79
2023/07/07 03:02:06;;;;;;;0.20;0.20;;;;;;;16.11;62.65;101975.22;5134468;27;20043;-77
2023/07/07 03:04:32;;;;;;;0.00;0.00;;;;;;;16.11;62.42;101980.56;5133998;27;20070;-77
2023/07/07 03:06:58;;;;;;;0.50;0.50;;;;;;;16.10;61.95;101973.47;5121234;28;20036;-78
2023/07/07 03:09:24;;;;;;;0.00;0.00;;;;;;;16.09;62.22;101979.72;5109757;28;20020;-78
2023/07/07 03:11:51;;;;;;;0.65;0.65;;;;;;;16.08;62.30;101980.63;5112533;28;20055;-79
2023/07/07 03:14:21;;;;;;;0.10;0.10;;;;;;;16.09;62.24;101982.38;5125070;27;20034;-79
2023/07/07 03:16:51;;;;;;;0.10;0.10;;;;;;;16.07;62.35;101983.34;5114835;27;20091;-79
2023/07/07 03:19:19;;;;;;;0.00;0.00;;;;;;;16.05;62.19;101986.06;5134512;27;20028;-79
2023/07/07 03:21:45;;;;;;;0.77;0.75;;;;;;;16.06;62.08;101984.25;5123826;27;20028;-79
2023/07/07 03:24:13;;;;;;;0.00;0.00;;;;;;;16.04;62.73;101984.31;5124747;27;20660;-79
2023/07/07 03:26:39;;;;;;;0.10;0.10;;;;;;;16.04;62.21;101980.72;5112752;27;20058;-79
2023/07/07 03:29:05;;;;;;;0.10;0.10;;;;;;;16.05;62.20;101983.38;5140695;27;20028;-79
2023/07/07 03:31:32;;;;;;;0.10;0.10;;;;;;;16.05;62.44;101977.16;5141132;27;20035;-78
2023/07/07 03:34:01;;;;;;;0.10;0.10;;;;;;;16.05;61.98;101982.50;5122113;28;20047;-78
2023/07/07 03:36:29;;;;;;;1.00;1.00;;;;;;;16.06;62.33;101981.59;5126027;27;20022;-78
2023/07/07 03:38:56;;;;;;;0.10;0.10;;;;;;;16.06;62.32;101986.94;5121358;28;20032;-78
2023/07/07 03:41:25;;;;;;;0.10;0.10;;;;;;;16.06;62.08;101989.59;5134184;27;20027;-77
2023/07/07 03:43:53;;;;;;;0.00;0.00;;;;;;;16.04;62.22;101984.31;5140116;27;20046;-77
2023/07/07 03:46:22;;;;;;;0.00;0.00;;;;;;;16.02;62.08;101978.09;5135494;27;20020;-77
2023/07/07 03:48:49;;;;;;;0.03;0.03;;;;;;;16.02;62.44;101986.13;5138886;27;20471;-78
2023/07/07 03:51:17;;;;;;;0.10;0.10;;;;;;;16.04;62.12;101988.75;5137202;27;20017;-77
2023/07/07 03:53:44;;;;;;;0.10;0.10;;;;;;;16.03;62.10;101979.88;5108909;28;20046;-78
2023/07/07 03:56:12;;;;;;;0.10;0.10;;;;;;;16.05;62.18;101987.84;5126761;27;20027;-81
2023/07/07 03:58:38;;;;;;;0.10;0.10;;;;;;;16.05;62.17;101985.16;5129818;27;20020;-78
2023/07/07 04:01:09;;;;;;;0.10;0.10;;;;;;;16.07;62.33;101986.88;5119675;28;20039;-78
2023/07/07 04:03:35;;;;;;;0.08;0.08;;;;;;;16.08;62.10;101993.13;5132131;27;20042;-79
2023/07/07 04:06:02;;;;;;;0.03;0.03;;;;;;;16.08;61.71;101987.78;5126194;27;20031;-79
2023/07/07 04:08:29;;;;;;;0.00;0.00;;;;;;;16.09;62.24;101990.41;5121054;28;20044;-78
2023/07/07 04:11:14;;;;;;;0.10;0.10;;;;;;;16.16;61.89;101989.34;5120608;28;20024;-79
2023/07/07 04:13:41;;;;;;;0.10;0.10;;;;;;;16.12;62.21;101998.34;5143220;27;20029;-78
2023/07/07 04:16:10;;;;;;;0.10;0.10;;;;;;;16.15;61.79;101990.25;5129959;27;20077;-78
2023/07/07 04:18:37;;;;;;;0.05;0.05;;;;;;;16.17;61.88;101990.22;5122305;28;20016;-78
2023/07/07 04:21:06;;;;;;;0.17;0.17;;;;;;;16.18;61.72;101998.19;5138952;27;20113;-78
2023/07/07 04:23:33;;;;;;;0.22;0.22;;;;;;;16.20;61.96;101999.94;5119167;27;20024;-78
2023/07/07 04:25:59;;;;;;;0.00;0.00;;;;;;;16.22;61.96;101990.09;5132902;27;20099;-78
2023/07/07 04:28:26;;;;;;;0.10;0.10;;;;;;;16.25;62.16;101993.59;5121025;28;20028;-78
2023/07/07 04:30:53;;;;;;;0.00;0.00;;;;;;;16.27;62.00;101993.53;5135977;27;20027;-78
2023/07/07 04:33:20;;;;;;;0.10;0.10;;;;;;;16.30;62.09;101993.47;5127685;27;20839;-79
2023/07/07 04:35:52;;;;;;;0.00;0.00;;;;;;;16.35;62.07;101994.22;5133660;27;20034;-79
2023/07/07 04:38:19;;;;;;;0.70;0.70;;;;;;;16.36;61.52;101990.59;5120682;28;20515;-78
2023/07/07 04:40:45;;;;;;;0.00;0.00;;;;;;;16.38;61.62;101999.47;5139670;27;20039;-77
2023/07/07 04:43:11;;;;;;;0.32;0.32;;;;;;;16.41;61.56;101993.16;5144146;27;20027;-78
2023/07/07 04:45:38;;;;;;;0.10;0.10;;;;;;;16.44;61.49;101990.44;5121598;27;20027;-78
2023/07/07 04:48:04;;;;;;;0.10;0.10;;;;;;;16.48;61.41;101990.28;5123597;27;20031;-78
2023/07/07 04:50:33;;;;;;;0.10;0.10;;;;;;;16.53;61.33;101994.66;5111540;27;20027;-77
2023/07/07 04:52:59;;;;;;;0.10;0.10;;;;;;;16.55;61.05;101992.81;5099370;28;20039;-77
2023/07/07 04:55:25;;;;;;;0.10;0.10;;;;;;;16.58;61.10;101984.72;5117039;27;20110;-78
2023/07/07 04:57:51;;;;;;;0.10;0.10;;;;;;;16.62;60.85;101986.38;5132036;27;20050;-78
2023/07/07 05:00:18;;;;;;;0.10;0.10;;;;;;;16.66;61.00;101982.72;5120432;27;20028;-78
2023/07/07 05:02:44;;;;;;;0.00;0.00;;;;;;;16.69;60.85;101987.97;5106496;28;20106;-78
2023/07/07 05:05:11;;;;;;;0.10;0.10;;;;;;;16.74;60.79;101996.75;5111513;28;20059;-78
2023/07/07 05:07:37;;;;;;;0.10;0.10;;;;;;;16.77;60.39;101999.34;5103166;27;20108;-77
2023/07/07 05:10:03;;;;;;;0.03;0.03;;;;;;;16.81;60.53;101992.13;5128148;27;20034;-78
2023/07/07 05:12:29;;;;;;;0.13;0.13;;;;;;;16.86;60.42;101994.66;5109775;28;20034;-78
2023/07/07 05:14:55;;;;;;;0.10;0.10;;;;;;;16.91;60.50;101998.06;5123634;27;20060;-78
2023/07/07 05:17:21;;;;;;;0.10;0.10;;;;;;;16.94;60.59;101993.53;5098568;28;20028;-78
2023/07/07 05:19:47;;;;;;;0.10;0.10;;;;;;;17.01;60.27;101996.94;5131183;27;20039;-78
2023/07/07 05:22:14;;;;;;;0.10;0.10;;;;;;;17.08;60.00;102005.66;5115679;27;20032;-78
2023/07/07 05:24:40;;;;;;;0.10;0.10;;;;;;;17.13;60.14;102003.72;5101282;27;20031;-78
2023/07/07 05:27:06;;;;;;;0.10;0.10;;;;;;;17.19;60.22;102010.72;5136450;27;20024;-78
2023/07/07 05:29:32;;;;;;;0.03;0.03;;;;;;;17.23;60.39;102007.00;5120456;28;20089;-78
2023/07/07 05:31:58;;;;;;;0.00;0.00;;;;;;;17.28;60.30;102002.41;5100867;28;20036;-79
2023/07/07 05:34:24;;;;;;;0.30;0.30;;;;;;;17.36;60.20;102004.84;5135218;27;20107;-78
2023/07/07 05:36:50;;;;;;;0.55;0.55;;;;;;;17.41;60.18;102008.28;5128576;28;20035;-79
2023/07/07 05:39:17;;;;;;;0.10;0.10;;;;;;;17.45;60.78;102005.44;5099082;28;20033;-79
2023/07/07 05:41:44;;;;;;;0.08;0.08;;;;;;;17.52;60.27;102005.25;5140103;27;20436;-80
2023/07/07 05:44:10;;;;;;;0.10;0.10;;;;;;;17.58;60.54;102005.06;5112329;28;20123;-79
2023/07/07 05:46:36;;;;;;;0.08;0.08;;;;;;;17.65;60.11;102012.00;5104165;28;20040;-79
2023/07/07 05:49:02;;;;;;;0.17;0.17;;;;;;;17.73;60.41;102019.78;5132491;27;20034;-78
2023/07/07 05:51:28;;;;;;;0.05;0.05;;;;;;;17.79;60.31;102017.81;5111484;28;20688;-79
2023/07/07 05:53:54;;;;;;;0.00;0.00;;;;;;;17.88;59.83;102016.66;5100766;28;20280;-78
2023/07/07 05:56:23;;;;;;;0.00;0.00;;;;;;;17.99;59.72;102019.00;5114364;27;20121;-79
2023/07/07 05:58:52;;;;;;;0.10;0.10;;;;;;;18.08;59.38;102025.84;5141573;28;20019;-78
2023/07/07 06:01:18;;;;;;;0.00;0.00;;;;;;;18.14;59.40;102030.16;5145557;27;20023;-78
2023/07/07 06:03:45;;;;;;;0.10;0.10;;;;;;;18.21;59.34;102031.72;5120091;28;20113;-79
2023/07/07 06:06:12;;;;;;;0.08;0.08;;;;;;;18.29;59.16;102024.28;5110208;28;20034;-79
2023/07/07 06:08:39;;;;;;;0.10;0.10;;;;;;;18.37;59.07;102022.22;5098673;28;20032;-76
2023/07/07 06:11:06;;;;;;;0.20;0.20;;;;;;;18.47;58.70;102024.56;5114967;28;20076;-78
2023/07/07 06:13:32;;;;;;;0.10;0.10;;;;;;;18.53;58.69;102013.63;5129282;27;20044;-78
2023/07/07 06:15:59;;;;;;;0.00;0.00;;;;;;;18.59;58.45;102021.47;5123234;28;20027;-77
2023/07/07 06:18:25;;;;;;;0.10;0.10;;;;;;;18.68;58.57;102021.16;5123672;27;20020;-79
2023/07/07 06:20:55;;;;;;;0.00;0.00;;;;;;;18.78;58.54;102021.72;5125889;27;20024;-79
2023/07/07 06:23:22;;;;;;;0.10;0.10;;;;;;;18.87;58.43;102031.25;5117941;28;20047;-79
2023/07/07 06:25:49;;;;;;;0.70;0.30;;;;;;;18.95;57.91;102020.25;5128789;27;20114;-80
2023/07/07 06:28:16;;;;;;;0.10;0.10;;;;;;;19.02;58.02;102025.34;5128887;27;20031;-78
2023/07/07 06:30:42;;;;;;;0.10;0.10;;;;;;;19.13;58.10;102026.75;5124916;28;20065;-78
2023/07/07 06:33:09;;;;;;;0.00;0.00;;;;;;;19.21;57.60;102024.66;5120155;28;20826;-78
2023/07/07 06:35:35;;;;;;;0.00;0.00;;;;;;;19.30;57.56;102024.31;5114269;28;20038;-77
2023/07/07 06:38:01;;;;;;;0.10;0.10;;;;;;;19.42;57.26;102022.09;5117158;28;20031;-76
2023/07/07 06:40:29;;;;;;;0.10;0.10;;;;;;;19.61;56.73;102022.25;5126724;28;20118;-78
2023/07/07 06:42:55;;;;;;;1.35;0.68;;;;;;;19.70;56.55;102030.84;5128726;28;20016;-77
2023/07/07 06:45:22;;;;;;;1.38;1.27;;;;;;;19.69;56.27;102026.38;5125892;28;20036;-78
2023/07/07 06:47:48;;;;;;;0.10;0.10;;;;;;;19.80;56.29;102034.03;5126655;27;20019;-78
2023/07/07 06:50:21;;;;;;;0.10;0.10;;;;;;;19.92;56.01;102031.81;5129244;27;20036;-79
2023/07/07 06:52:47;;;;;;;0.10;0.10;;;;;;;20.01;56.23;102029.63;5117307;28;20027;-78
2023/07/07 06:55:13;;;;;;;0.52;0.52;;;;;;;20.08;54.61;102037.47;5123079;28;20032;-78
2023/07/07 06:57:39;;;;;;;0.10;0.10;;;;;;;20.21;55.18;102030.59;5124088;28;20036;-79
2023/07/07 07:00:06;;;;;;;1.27;1.15;;;;;;;20.41;54.85;102039.66;5125913;28;20133;-79
2023/07/07 07:02:32;;;;;;;0.10;0.10;;;;;;;20.51;53.78;102041.00;5110153;28;20036;-77
2023/07/07 07:04:58;;;;;;;0.00;0.00;;;;;;;20.62;53.56;102033.38;5127141;27;20031;-78
2023/07/07 07:07:24;;;;;;;0.10;0.10;;;;;;;20.63;54.12;102029.72;5125524;27;20027;-78
2023/07/07 07:09:51;;;;;;;0.10;0.10;;;;;;;20.71;54.10;102034.81;5122953;28;20027;-78
2023/07/07 07:12:17;;;;;;;0.10;0.10;;;;;;;20.83;53.96;102036.09;5117209;28;20107;-77
2023/07/07 07:14:43;;;;;;;0.03;0.03;;;;;;;20.89;52.21;102035.81;5121731;28;20080;-79
2023/07/07 07:17:09;;;;;;;0.10;0.10;;;;;;;20.99;52.46;102037.13;5122387;28;20030;-79
2023/07/07 07:19:35;;;;;;;0.30;0.30;;;;;;;21.12;51.55;102044.66;5133358;27;20465;-78
2023/07/07 07:22:01;;;;;;;0.30;0.30;;;;;;;21.23;50.80;102033.41;5116245;28;20035;-77
2023/07/07 07:24:27;;;;;;;0.45;0.45;;;;;;;21.33;51.50;102040.13;5119872;28;20031;-79
2023/07/07 07:26:54;;;;;;;0.10;0.10;;;;;;;21.47;51.12;102039.47;5120016;28;20032;-77
2023/07/07 07:29:20;;;;;;;0.30;0.30;;;;;;;21.57;51.72;102043.53;5124093;28;20062;-78
2023/07/07 07:31:46;;;;;;;0.00;0.00;;;;;;;21.64;51.33;102050.34;5123402;28;20031;-76
2023/07/07 07:34:22;;;;;;;0.10;0.10;;;;;;;21.90;51.32;102041.97;5114662;28;20055;-79
2023/07/07 07:36:50;;;;;;;0.22;0.22;;;;;;;21.93;49.39;102047.22;5111659;27;20059;-79
2023/07/07 07:39:16;;;;;;;0.10;0.10;;;;;;;22.07;49.70;102047.41;5119937;28;20040;-78
2023/07/07 07:41:46;;;;;;;0.10;0.10;;;;;;;22.17;49.29;102052.34;5117033;28;20028;-82
2023/07/07 07:44:13;;;;;;;0.35;0.35;;;;;;;22.30;49.39;102048.94;5131626;28;20045;-79
2023/07/07 07:46:40;;;;;;;0.10;0.10;;;;;;;22.39;48.77;102052.16;5130916;28;20023;-80
2023/07/07 07:49:06;;;;;;;0.00;0.00;;;;;;;22.42;49.98;102057.44;5130104;28;20024;-81
2023/07/07 07:51:32;;;;;;;0.10;0.10;;;;;;;22.50;49.79;102051.63;5121359;28;20144;-79
2023/07/07 07:53:58;;;;;;;14.23;1.00;;;;;;;22.53;48.18;102048.75;5124240;28;20023;-79
2023/07/07 07:56:24;;;;;;;0.10;0.10;;;;;;;22.64;49.60;102049.06;5124695;28;20084;-79
2023/07/07 07:58:53;;;;;;;0.00;0.00;;;;;;;22.78;49.50;102049.25;5134603;27;20024;-79
2023/07/07 08:01:19;;;;;;;0.20;0.20;;;;;;;22.87;49.63;102050.59;5126776;28;20023;-80
2023/07/07 08:03:45;;;;;;;0.03;0.03;;;;;;;22.96;49.61;102042.94;5119552;28;20032;-79
2023/07/07 08:06:11;;;;;;;0.08;0.08;;;;;;;23.04;48.86;102048.81;5129332;27;20314;-79
2023/07/07 08:08:37;;;;;;;0.20;0.20;;;;;;;23.19;49.66;102055.25;5120748;28;20039;-78
2023/07/07 08:11:03;;;;;;;0.00;0.00;;;;;;;23.26;48.59;102044.03;5124746;28;20023;-79
2023/07/07 08:13:29;;;;;;;0.00;0.00;;;;;;;23.35;47.88;102047.16;5123545;28;20027;-80
2023/07/07 08:15:56;;;;;;;0.10;0.10;;;;;;;23.43;48.14;102045.78;5124782;28;20022;-79
2023/07/07 08:18:22;;;;;;;0.10;0.10;;;;;;;23.56;47.64;102046.00;5121475;28;20050;-78
2023/07/07 08:20:48;;;;;;;0.10;0.10;;;;;;;23.71;48.01;102049.66;5123476;28;20119;-79
2023/07/07 08:23:14;;;;;;;0.05;0.05;;;;;;;23.69;46.86;102047.97;5119093;28;20043;-78
2023/07/07 08:25:40;;;;;;;0.13;0.13;;;;;;;23.80;47.60;102053.69;5123048;28;20027;-77
2023/07/07 08:28:06;;;;;;;0.10;0.10;;;;;;;23.86;47.18;102045.22;5122395;28;20032;-78
2023/07/07 08:30:32;;;;;;;0.00;0.00;;;;;;;24.00;47.31;102060.69;5115280;28;20036;-79
2023/07/07 08:32:58;;;;;;;0.00;0.00;;;;;;;24.09;47.30;102052.97;5117526;28;20028;-78
2023/07/07 08:35:24;;;;;;;0.03;0.03;;;;;;;24.14;45.03;102056.28;5116828;28;20201;-77
2023/07/07 08:37:50;;;;;;;0.20;0.20;;;;;;;24.22;45.79;102054.91;5120630;28;20027;-77
2023/07/07 08:40:27;;;;;;;0.10;0.10;;;;;;;24.39;45.72;102053.03;5116671;28;20028;-79
2023/07/07 08:42:53;;;;;;;0.10;0.10;;;;;;;24.44;45.54;102064.47;5113436;28;20039;-76
2023/07/07 08:45:22;;;;;;;0.80;0.40;;;;;;;24.51;44.98;102055.00;5121659;28;20123;-77
2023/07/07 08:53:36;;;;;;;0.10;0.10;;;;;;;24.86;44.62;102051.13;5071547;28;20405;-79
2023/07/07 08:56:24;;;;;;;0.10;0.10;;;;;;;24.91;42.16;102051.75;5070206;28;20092;-79
2023/07/07 08:59:30;;;;;;;0.10;0.10;;;;;;;25.10;43.27;102045.19;5079049;28;20036;-79
2023/07/07 09:02:21;;;;;;;0.20;0.20;;;;;;;25.16;42.50;102040.22;5072373;28;20025;-78
2023/07/07 09:13:28;;;;;;;0.10;0.10;;;;;;;25.72;42.30;102041.25;5129293;27;20388;-82
2023/07/07 09:19:03;;;;;;;0.00;0.00;;;;;;;25.93;41.41;102047.13;5121535;27;20415;-77
2023/07/07 09:24:20;;;;;;;0.00;0.00;;;;;;;26.15;40.55;102038.44;5118419;27;20477;-78
2023/07/07 09:26:49;;;;;;;0.10;0.10;;;;;;;26.23;40.76;102040.63;5122489;28;20209;-79
2023/07/07 09:29:24;;;;;;;0.20;0.20;;;;;;;26.34;38.96;102046.19;5120139;28;20031;-79
2023/07/07 09:31:50;;;;;;;0.10;0.10;;;;;;;26.40;38.36;102040.34;5102853;28;20039;-79
2023/07/07 09:34:17;;;;;;;0.00;0.00;;;;;;;26.47;37.89;102041.69;5099027;28;20040;-78
2023/07/07 09:40:02;;;;;;;0.05;0.05;;;;;;;26.78;38.50;102031.44;5110300;27;20407;-77
2023/07/07 09:45:42;;;;;;;0.10;0.10;;;;;;;26.99;37.77;102030.88;5126553;27;20375;-77
2023/07/07 09:48:20;;;;;;;0.03;0.03;;;;;;;27.12;38.09;102031.75;5121954;28;20035;-79
2023/07/07 09:50:57;;;;;;;0.13;0.13;;;;;;;27.19;37.84;102040.34;5117897;28;20081;-76
2023/07/07 09:53:31;;;;;;;0.03;0.03;;;;;;;27.29;35.99;102037.81;5107622;28;20027;-79
2023/07/07 09:55:58;;;;;;;0.00;0.00;;;;;;;27.36;36.24;102036.38;5112648;28;20036;-79
2023/07/07 10:01:04;;;;;;;0.10;0.10;;;;;;;27.54;36.43;102030.59;5094923;27;20417;-77
2023/07/07 10:06:24;;;;;;;0.00;0.00;;;;;;;27.75;36.26;102031.75;5103454;27;20397;-78
2023/07/07 10:08:50;;;;;;;0.43;0.32;;;;;;;27.76;34.78;102028.06;5098678;28;20036;-77
2023/07/07 10:11:23;;;;;;;0.13;0.13;;;;;;;27.89;34.64;102027.13;5109440;28;20032;-79
2023/07/07 10:13:52;;;;;;;0.10;0.10;;;;;;;27.94;35.97;102027.66;5100674;28;20017;-78
2023/07/07 10:16:30;;;;;;;0.22;0.22;;;;;;;28.04;35.15;102020.53;5101849;28;20028;-77
2023/07/07 10:19:01;;;;;;;0.10;0.10;;;;;;;28.03;34.33;102028.81;5094542;28;20016;-79
2023/07/07 10:21:27;;;;;;;1.27;0.40;;;;;;;28.02;32.18;102024.34;5105183;28;20028;-77
2023/07/07 10:23:53;;;;;;;0.08;0.08;;;;;;;28.17;34.02;102025.06;5108786;28;20066;-77
2023/07/07 10:26:20;;;;;;;0.40;0.40;;;;;;;28.22;33.48;102023.72;5115955;28;20036;-79
2023/07/07 10:28:48;;;;;;;0.30;0.30;;;;;;;28.31;34.17;102022.13;5120447;28;20035;-80
2023/07/07 10:31:16;;;;;;;0.20;0.20;;;;;;;28.42;33.09;102021.31;5108629;28;20040;-80
2023/07/07 10:33:43;;;;;;;0.10;0.10;;;;;;;28.44;32.13;102021.19;5101088;28;20032;-80
2023/07/07 10:38:56;;;;;;;0.75;0.75;;;;;;;28.65;32.66;102018.63;5063383;28;20414;-77
2023/07/07 10:41:23;;;;;;;0.10;0.10;;;;;;;28.73;31.56;102018.94;5067717;28;20041;-78
2023/07/07 10:43:50;;;;;;;0.10;0.10;;;;;;;28.81;31.69;102015.59;5059410;28;20040;-79
2023/07/07 10:46:16;;;;;;;0.13;0.13;;;;;;;28.86;32.49;102010.63;5050566;28;20049;-79
2023/07/07 10:48:44;;;;;;;0.10;0.10;;;;;;;28.92;31.58;102010.16;5046896;28;20437;-79
2023/07/07 10:56:43;;;;;;;0.10;0.10;;;;;;;29.09;32.41;101995.16;5119547;27;20170;-78
2023/07/07 10:59:49;;;;;;;0.10;0.10;;;;;;;29.17;31.42;102002.72;5117699;28;20025;-78
2023/07/07 11:02:48;;;;;;;0.15;0.15;;;;;;;29.28;30.40;101999.97;5119386;28;20023;-78
2023/07/07 11:05:36;;;;;;;0.15;0.15;;;;;;;29.43;32.35;102005.22;5104512;28;20049;-78
2023/07/07 11:08:20;;;;;;;0.20;0.20;;;;;;;29.44;30.63;101999.63;5104466;28;20028;-78
2023/07/07 11:22:33;;;;;;;0.15;0.15;;;;;;;29.80;28.71;102004.88;5105113;27;20354;-76
2023/07/07 11:25:16;;;;;;;0.00;0.00;;;;;;;29.76;27.63;101997.94;5080213;28;20083;-75
2023/07/07 11:30:31;;;;;;;0.08;0.08;;;;;;;29.80;29.73;101988.50;5155176;27;20411;-76
2023/07/07 11:33:26;;;;;;;0.10;0.10;;;;;;;30.02;29.42;101988.44;5143181;28;20108;-76
2023/07/07 11:36:16;;;;;;;0.30;0.30;;;;;;;30.10;29.95;101992.38;5140161;28;20053;-77
2023/07/07 11:39:01;;;;;;;0.10;0.10;;;;;;;30.23;29.58;101995.78;5132494;28;20055;-76
2023/07/07 11:41:56;;;;;;;5.47;0.52;;;;;;;30.36;29.96;101994.72;5139620;28;20038;-76
2023/07/07 11:52:48;;;;;;;0.20;0.20;;;;;;;30.63;29.17;101991.47;5141509;27;20764;-77
2023/07/07 11:55:54;;;;;;;6.50;0.38;;;;;;;30.72;28.56;101984.31;5146316;27;20027;-78
2023/07/07 12:01:35;;;;;;;0.20;0.20;;;;;;;30.81;28.76;101983.53;5075906;28;20896;-80
2023/07/07 12:04:19;;;;;;;0.10;0.10;;;;;;;30.86;27.96;101981.25;5063946;28;20236;-79
2023/07/07 12:06:58;;;;;;;0.17;0.17;;;;;;;30.87;25.92;101977.50;5059815;28;20101;-79
2023/07/07 12:12:10;;;;;;;0.15;0.15;;;;;;;31.06;26.21;101970.41;5071604;28;20760;-77
2023/07/07 12:14:53;;;;;;;0.10;0.10;;;;;;;31.17;28.00;101969.44;5048234;28;20033;-76
2023/07/07 12:17:31;;;;;;;0.45;0.45;;;;;;;31.24;26.62;101967.88;5047998;28;20025;-77
2023/07/07 12:20:03;;;;;;;0.00;0.00;;;;;;;31.24;26.06;101968.75;5063281;28;20035;-78
2023/07/07 12:22:35;;;;;;;0.03;0.03;;;;;;;31.34;27.50;101971.53;5062450;28;20096;-78
2023/07/07 12:25:25;;;;;;;0.25;0.25;;;;;;;31.46;25.60;101969.53;5053423;28;20079;-79
2023/07/07 12:27:52;;;;;;;0.15;0.15;;;;;;;31.44;26.24;101969.66;5058504;28;20032;-79
2023/07/07 12:30:46;;;;;;;0.10;0.10;;;;;;;31.58;25.73;101962.06;5056489;28;20022;-77
2023/07/07 12:33:14;;;;;;;0.00;0.00;;;;;;;31.54;28.30;101960.59;5056541;28;20038;-79
2023/07/07 12:41:13;;;;;;;0.10;0.10;;;;;;;31.57;26.16;101961.19;5100802;27;20409;-76
2023/07/07 12:43:43;;;;;;;0.10;0.10;;;;;;;31.68;26.21;101954.75;5085849;28;20035;-77
2023/07/07 12:46:31;;;;;;;9.65;0.55;;;;;;;31.83;27.13;101957.94;5082964;28;20375;-77
2023/07/07 12:49:03;;;;;;;0.00;0.00;;;;;;;31.84;25.84;101958.78;5088410;28;20036;-77
2023/07/07 12:51:32;;;;;;;0.00;0.00;;;;;;;32.02;27.18;101950.72;5080704;28;20119;-77
2023/07/07 12:53:59;;;;;;;0.10;0.10;;;;;;;32.15;26.69;101943.06;5080619;28;20028;-77